createdAt,value
2022-12-03T00:00:04.106Z,40.65
2022-12-03T00:02:36.588Z,42.15
2022-12-03T00:05:05.261Z,45.88
2022-12-03T00:07:32.703Z,35.13
2022-12-03T00:10:00.081Z,42.20
2022-12-03T00:12:26.966Z,38.45
2022-12-03T00:14:56.381Z,38.63
2022-12-03T00:17:23.591Z,40.08
2022-12-03T00:19:50.697Z,38.63
2022-12-03T00:22:17.693Z,40.45
2022-12-03T00:24:44.755Z,38.53
2022-12-03T00:27:15.025Z,39.38
2022-12-03T00:29:42.086Z,40.90
2022-12-03T00:32:09.260Z,39.40
2022-12-03T00:34:36.328Z,36.10
2022-12-03T00:37:03.577Z,44.35
2022-12-03T00:39:30.818Z,39.50
2022-12-03T00:42:00.108Z,42.33
2022-12-03T00:44:27.470Z,40.90
2022-12-03T00:46:54.517Z,39.53
2022-12-03T00:49:21.664Z,36.65
2022-12-03T00:51:48.705Z,37.25
2022-12-03T00:54:16.822Z,36.55
2022-12-03T00:56:45.799Z,44.42
2022-12-03T00:59:14.742Z,36.45
2022-12-03T01:01:41.847Z,35.15
2022-12-03T01:04:09.131Z,45.42
2022-12-03T01:06:37.590Z,38.08
2022-12-03T01:09:04.871Z,33.22
2022-12-03T01:11:37.651Z,34.78
2022-12-03T01:14:14.771Z,36.50
2022-12-03T01:16:42.538Z,35.50
2022-12-03T01:19:10.662Z,36.90
2022-12-03T01:21:41.077Z,33.53
2022-12-03T01:24:09.210Z,40.08
2022-12-03T01:26:36.748Z,36.22
2022-12-03T01:29:07.674Z,34.50
2022-12-03T01:31:53.632Z,33.72
2022-12-03T01:34:20.920Z,32.70
2022-12-03T01:36:47.837Z,33.08
2022-12-03T01:39:14.890Z,34.08
2022-12-03T01:41:42.250Z,39.25
2022-12-03T01:44:24.189Z,34.33
2022-12-03T01:46:54.619Z,38.55
2022-12-03T01:49:43.669Z,41.10
2022-12-03T01:52:17.423Z,38.70
2022-12-03T01:55:06.351Z,41.70
2022-12-03T01:57:38.436Z,35.13
2022-12-03T02:00:06.704Z,35.00
2022-12-03T02:02:35.283Z,32.50
2022-12-03T02:05:07.451Z,34.42
2022-12-03T02:07:35.485Z,31.95
2022-12-03T02:10:04.311Z,38.80
2022-12-03T02:12:36.957Z,33.85
2022-12-03T02:15:06.446Z,38.78
2022-12-03T02:17:34.326Z,34.60
2022-12-03T02:20:02.799Z,36.10
2022-12-03T02:22:48.999Z,36.13
2022-12-03T02:25:27.238Z,37.08
2022-12-03T02:27:55.308Z,35.00
2022-12-03T02:30:26.844Z,36.08
2022-12-03T02:32:54.917Z,37.50
2022-12-03T02:35:25.557Z,35.10
2022-12-03T02:37:58.764Z,37.28
2022-12-03T02:40:31.031Z,38.83
2022-12-03T02:43:01.199Z,31.95
2022-12-03T02:45:33.835Z,35.45
2022-12-03T02:48:09.209Z,35.42
2022-12-03T02:50:39.453Z,31.90
2022-12-03T02:53:11.184Z,34.42
2022-12-03T02:55:38.427Z,33.08
2022-12-03T02:58:06.156Z,30.92
2022-12-03T03:00:35.675Z,33.58
2022-12-03T03:03:05.102Z,30.63
2022-12-03T03:05:34.081Z,34.42
2022-12-03T03:08:01.755Z,33.35
2022-12-03T03:10:29.789Z,32.30
2022-12-03T03:12:57.629Z,38.17
2022-12-03T03:15:25.754Z,32.42
2022-12-03T03:17:53.080Z,30.42
2022-12-03T03:20:21.011Z,38.15
2022-12-03T03:22:51.337Z,34.97
2022-12-03T03:25:24.773Z,31.45
2022-12-03T03:27:52.591Z,32.78
2022-12-03T03:30:20.689Z,35.75
2022-12-03T03:32:47.811Z,29.58
2022-12-03T03:35:15.069Z,31.98
2022-12-03T03:37:42.349Z,30.70
2022-12-03T03:40:10.310Z,33.47
2022-12-03T03:42:39.604Z,30.70
2022-12-03T03:45:08.885Z,35.90
2022-12-03T03:47:36.906Z,29.17
2022-12-03T03:50:04.845Z,33.03
2022-12-03T03:52:32.185Z,30.50
2022-12-03T03:54:59.480Z,35.53
2022-12-03T03:57:26.939Z,25.13
2022-12-03T03:59:54.127Z,29.65
2022-12-03T04:02:24.853Z,27.98
2022-12-03T04:04:52.792Z,33.33
2022-12-03T04:07:20.410Z,31.08
2022-12-03T04:09:47.392Z,32.58
2022-12-03T04:12:33.543Z,29.20
2022-12-03T04:15:01.174Z,30.58
2022-12-03T04:17:28.325Z,29.13
2022-12-03T04:19:55.416Z,29.77
2022-12-03T04:22:41.161Z,27.73
2022-12-03T04:25:28.483Z,29.33
2022-12-03T04:28:14.358Z,25.73
2022-12-03T04:30:41.451Z,28.90
2022-12-03T04:33:26.890Z,28.08
2022-12-03T04:35:53.876Z,29.75
2022-12-03T04:38:20.840Z,31.15
2022-12-03T04:41:04.382Z,29.42
2022-12-03T04:43:34.452Z,25.10
2022-12-03T04:46:02.321Z,30.42
2022-12-03T04:48:29.968Z,26.85
2022-12-03T04:50:56.900Z,30.15
2022-12-03T04:53:23.871Z,28.55
2022-12-03T04:55:51.272Z,27.30
2022-12-03T04:58:18.278Z,29.88
2022-12-03T05:00:45.501Z,27.20
2022-12-03T05:03:12.643Z,34.05
2022-12-03T05:05:39.850Z,28.17
2022-12-03T05:08:07.372Z,30.13
2022-12-03T05:10:34.625Z,27.80
2022-12-03T05:13:03.172Z,30.67
2022-12-03T05:15:30.287Z,24.42
2022-12-03T05:17:57.714Z,24.95
2022-12-03T05:20:45.784Z,27.48
2022-12-03T05:23:19.271Z,26.45
2022-12-03T05:25:46.706Z,27.95
2022-12-03T05:28:13.668Z,28.17
2022-12-03T05:30:41.052Z,28.10
2022-12-03T05:33:08.090Z,29.48
2022-12-03T05:35:35.059Z,28.10
2022-12-03T05:38:01.952Z,27.33
2022-12-03T05:40:28.985Z,23.60
2022-12-03T05:43:01.189Z,28.38
2022-12-03T05:45:33.866Z,25.40
2022-12-03T05:48:02.250Z,29.50
2022-12-03T05:50:32.161Z,27.98
2022-12-03T05:53:00.124Z,28.90
2022-12-03T05:55:27.792Z,26.02
2022-12-03T05:57:55.444Z,25.15
2022-12-03T06:00:28.917Z,31.02
2022-12-03T06:02:56.623Z,30.98
2022-12-03T06:05:24.869Z,29.63
2022-12-03T06:07:53.474Z,30.13
2022-12-03T06:10:23.827Z,25.02
2022-12-03T06:12:51.345Z,28.58
2022-12-03T06:15:19.654Z,26.88
2022-12-03T06:17:46.978Z,30.95
2022-12-03T06:20:19.102Z,30.80
2022-12-03T06:22:46.462Z,30.08
2022-12-03T06:25:13.504Z,26.10
2022-12-03T06:27:40.623Z,30.17
2022-12-03T06:30:09.052Z,29.27
2022-12-03T06:32:36.503Z,34.95
2022-12-03T06:35:03.778Z,32.03
2022-12-03T06:37:30.724Z,32.40
2022-12-03T06:39:59.120Z,32.60
2022-12-03T06:42:26.363Z,29.10
2022-12-03T06:44:53.646Z,29.45
2022-12-03T06:47:20.681Z,30.10
2022-12-03T06:49:47.888Z,29.67
2022-12-03T06:52:14.926Z,29.55
2022-12-03T06:54:41.917Z,28.38
2022-12-03T06:57:08.916Z,27.15
2022-12-03T06:59:37.615Z,28.95
2022-12-03T07:02:05.496Z,32.20
2022-12-03T07:04:32.530Z,28.25
2022-12-03T07:06:59.900Z,30.50
2022-12-03T07:09:27.075Z,29.13
2022-12-03T07:11:54.155Z,34.40
2022-12-03T07:14:21.238Z,30.85
2022-12-03T07:16:48.329Z,30.52
2022-12-03T07:19:15.788Z,32.03
2022-12-03T07:21:43.879Z,29.65
2022-12-03T07:24:11.084Z,29.83
2022-12-03T07:26:38.759Z,32.85
2022-12-03T07:29:06.101Z,33.15
2022-12-03T07:31:33.215Z,31.02
2022-12-03T07:34:01.016Z,33.60
2022-12-03T07:36:28.028Z,33.28
2022-12-03T07:38:55.046Z,29.35
2022-12-03T07:41:22.113Z,29.63
2022-12-03T07:43:49.163Z,33.10
2022-12-03T07:46:16.120Z,33.05
2022-12-03T07:48:43.204Z,35.60
2022-12-03T07:51:14.263Z,33.47
2022-12-03T07:53:42.428Z,33.42
2022-12-03T07:56:09.633Z,32.05
2022-12-03T07:58:36.726Z,28.58
2022-12-03T08:01:03.965Z,35.95
2022-12-03T08:03:31.271Z,33.28
2022-12-03T08:05:58.325Z,31.30
2022-12-03T08:08:25.401Z,29.83
2022-12-03T08:10:52.421Z,30.48
2022-12-03T08:13:21.370Z,30.20
2022-12-03T08:15:48.654Z,31.92
2022-12-03T08:18:20.789Z,29.65
2022-12-03T08:20:50.348Z,30.02
2022-12-03T08:23:26.008Z,32.78
2022-12-03T08:25:53.660Z,31.65
2022-12-03T08:28:28.370Z,28.83
2022-12-03T08:31:05.724Z,30.00
2022-12-03T08:33:35.541Z,28.90
2022-12-03T08:36:23.944Z,31.67
2022-12-03T08:38:54.815Z,29.30
2022-12-03T08:41:45.042Z,29.73
2022-12-03T08:44:36.342Z,32.08
2022-12-03T08:47:09.569Z,32.85
2022-12-03T08:49:37.658Z,34.60
2022-12-03T08:52:18.680Z,38.72
2022-12-03T08:54:53.875Z,32.45
2022-12-03T08:57:32.420Z,32.65
2022-12-03T09:00:12.336Z,35.08
2022-12-03T09:02:47.858Z,34.72
2022-12-03T09:05:27.010Z,35.22
2022-12-03T09:07:54.060Z,36.95
2022-12-03T09:10:21.367Z,35.85
2022-12-03T09:12:48.316Z,33.55
2022-12-03T09:15:15.395Z,37.60
2022-12-03T09:17:42.466Z,35.95
2022-12-03T09:20:11.586Z,40.58
2022-12-03T09:22:39.464Z,42.30
2022-12-03T09:25:07.084Z,42.58
2022-12-03T09:27:34.220Z,38.50
2022-12-03T09:30:01.284Z,39.80
2022-12-03T09:32:28.450Z,40.55
2022-12-03T09:34:55.887Z,43.65
2022-12-03T09:37:23.109Z,40.10
2022-12-03T09:39:50.723Z,43.05
2022-12-03T09:42:18.132Z,44.70
2022-12-03T09:44:45.376Z,41.65
2022-12-03T09:47:14.484Z,41.63
2022-12-03T09:49:41.994Z,46.38
2022-12-03T09:52:14.130Z,37.55
2022-12-03T09:54:47.124Z,43.35
2022-12-03T09:57:16.920Z,48.90
2022-12-03T09:59:44.068Z,40.75
2022-12-03T10:02:30.843Z,44.95
2022-12-03T10:04:58.312Z,52.03
2022-12-03T10:07:26.128Z,44.08
2022-12-03T10:09:53.714Z,50.63
2022-12-03T10:12:25.849Z,47.55
2022-12-03T10:14:54.068Z,47.88
2022-12-03T10:17:21.671Z,51.60
2022-12-03T10:19:48.844Z,44.88
2022-12-03T10:22:15.905Z,46.35
2022-12-03T10:24:45.325Z,48.25
2022-12-03T10:27:25.008Z,42.42
2022-12-03T10:30:01.945Z,49.78
2022-12-03T10:32:46.972Z,47.33
2022-12-03T10:35:21.277Z,48.40
2022-12-03T10:37:59.509Z,51.85
2022-12-03T10:40:33.083Z,54.50
2022-12-03T10:43:18.976Z,50.80
2022-12-03T10:45:51.091Z,45.83
2022-12-03T10:48:28.981Z,44.88
2022-12-03T10:51:04.971Z,47.28
2022-12-03T10:53:37.979Z,53.35
2022-12-03T10:56:08.172Z,49.25
2022-12-03T10:58:40.465Z,52.47
2022-12-03T11:01:16.504Z,59.20
2022-12-03T11:03:44.355Z,52.00
2022-12-03T11:06:22.142Z,50.63
2022-12-03T11:08:58.449Z,42.15
2022-12-03T11:11:30.140Z,47.90
2022-12-03T11:14:00.082Z,46.25
2022-12-03T11:16:40.393Z,56.95
2022-12-03T11:19:13.760Z,53.85
2022-12-03T11:22:07.222Z,51.92
2022-12-03T11:24:39.327Z,51.95
2022-12-03T11:27:08.067Z,51.60
2022-12-03T11:29:48.911Z,49.63
2022-12-03T11:32:38.034Z,52.90
2022-12-03T11:35:15.880Z,53.28
2022-12-03T11:37:43.064Z,48.67
2022-12-03T11:40:19.184Z,51.13
2022-12-03T11:42:48.878Z,51.22
2022-12-03T11:45:30.881Z,50.08
2022-12-03T11:48:06.245Z,48.92
2022-12-03T11:50:40.333Z,52.90
2022-12-03T11:53:37.989Z,56.40
2022-12-03T11:56:09.182Z,54.83
2022-12-03T11:58:39.551Z,55.38
2022-12-03T12:01:08.336Z,54.90
2022-12-03T12:03:41.572Z,56.05
2022-12-03T12:06:14.552Z,49.13
2022-12-03T12:09:00.030Z,59.22
2022-12-03T12:11:30.555Z,45.38
2022-12-03T12:14:06.698Z,51.40
2022-12-03T12:16:53.302Z,52.58
2022-12-03T12:22:21.111Z,52.15
2022-12-03T12:24:53.569Z,52.58
2022-12-03T12:27:38.397Z,54.47
2022-12-03T12:30:14.040Z,45.58
2022-12-03T12:33:07.571Z,46.88
2022-12-03T12:35:34.669Z,53.38
2022-12-03T12:38:08.682Z,51.53
2022-12-03T12:40:41.319Z,50.70
2022-12-03T12:43:14.385Z,51.05
2022-12-03T12:45:45.329Z,54.22
2022-12-03T12:48:20.637Z,55.20
2022-12-03T12:51:12.340Z,48.78
2022-12-03T12:53:42.971Z,52.83
2022-12-03T12:56:30.872Z,56.03
2022-12-03T12:59:10.467Z,50.35
2022-12-03T13:01:37.898Z,52.30
2022-12-03T13:04:16.931Z,54.95
2022-12-03T13:06:45.084Z,55.35
2022-12-03T13:09:21.438Z,55.72
2022-12-03T13:11:58.502Z,59.10
2022-12-03T13:14:31.814Z,54.42
2022-12-03T13:17:07.978Z,57.92
2022-12-03T13:19:46.292Z,59.13
2022-12-03T13:22:20.694Z,53.90
2022-12-03T13:24:53.447Z,54.20
2022-12-03T13:27:20.557Z,56.17
2022-12-03T13:29:55.999Z,52.85
2022-12-03T13:32:40.805Z,56.78
2022-12-03T13:35:17.614Z,52.85
2022-12-03T13:37:45.262Z,47.90
2022-12-03T13:40:26.752Z,56.50
2022-12-03T13:42:55.203Z,56.60
2022-12-03T13:45:24.796Z,50.30
2022-12-03T13:48:19.982Z,58.70
2022-12-03T13:50:47.154Z,59.15
2022-12-03T13:53:22.300Z,57.03
2022-12-03T13:56:11.093Z,62.38
2022-12-03T13:58:38.161Z,59.47
2022-12-03T14:01:05.500Z,56.25
2022-12-03T14:03:32.562Z,57.50
2022-12-03T14:06:00.810Z,52.72
2022-12-03T14:08:27.965Z,49.10
2022-12-03T14:11:00.408Z,56.65
2022-12-03T14:13:27.875Z,61.80
2022-12-03T14:15:55.278Z,62.03
2022-12-03T14:18:22.577Z,48.83
2022-12-03T14:20:49.695Z,52.05
2022-12-03T14:23:16.865Z,67.78
2022-12-03T14:25:44.570Z,61.83
2022-12-03T14:28:11.830Z,61.58
2022-12-03T14:30:38.940Z,62.33
2022-12-03T14:33:05.971Z,55.95
2022-12-03T14:35:33.142Z,61.75
2022-12-03T14:38:00.241Z,58.88
2022-12-03T14:40:27.611Z,59.30
2022-12-03T14:42:54.635Z,55.45
2022-12-03T14:45:23.442Z,53.30
2022-12-03T14:47:50.774Z,61.03
2022-12-03T14:50:17.869Z,58.63
2022-12-03T14:52:44.970Z,57.00
2022-12-03T14:55:12.086Z,59.90
2022-12-03T14:57:40.468Z,69.55
2022-12-03T15:00:09.123Z,58.50
2022-12-03T15:02:36.441Z,55.33
2022-12-03T15:05:03.497Z,55.83
2022-12-03T15:07:32.004Z,58.05
2022-12-03T15:09:59.254Z,55.40
2022-12-03T15:12:28.493Z,55.83
2022-12-03T15:14:55.994Z,57.55
2022-12-03T15:17:31.281Z,55.97
2022-12-03T15:19:58.963Z,56.38
2022-12-03T15:22:26.065Z,63.65
2022-12-03T15:24:53.863Z,51.95
2022-12-03T15:27:20.881Z,61.28
2022-12-03T15:29:48.021Z,52.30
2022-12-03T15:32:15.215Z,53.38
2022-12-03T15:34:42.139Z,56.03
2022-12-03T15:37:27.649Z,53.20
2022-12-03T15:39:55.242Z,58.92
2022-12-03T15:42:22.554Z,59.60
2022-12-03T15:44:49.857Z,54.47
2022-12-03T15:47:16.978Z,58.33
2022-12-03T15:49:44.115Z,57.72
2022-12-03T15:52:12.749Z,53.25
2022-12-03T15:54:40.122Z,57.92
2022-12-03T15:57:07.257Z,54.17
2022-12-03T15:59:35.881Z,62.88
2022-12-03T16:02:04.714Z,61.45
2022-12-03T16:04:32.613Z,60.88
2022-12-03T16:06:59.919Z,57.63
2022-12-03T16:09:27.845Z,58.72
2022-12-03T16:11:55.136Z,58.53
2022-12-03T16:14:23.394Z,61.70
2022-12-03T16:16:52.886Z,59.80
2022-12-03T16:19:19.970Z,53.63
2022-12-03T16:21:48.023Z,47.55
2022-12-03T16:24:16.059Z,47.42
2022-12-03T16:26:43.174Z,54.22
2022-12-03T16:29:10.168Z,50.05
2022-12-03T16:31:37.623Z,66.30
2022-12-03T16:34:04.530Z,54.95
2022-12-03T16:36:31.548Z,68.05
2022-12-03T16:38:58.690Z,60.65
2022-12-03T16:41:25.890Z,65.35
2022-12-03T16:43:53.008Z,58.15
2022-12-03T16:46:21.159Z,53.38
2022-12-03T16:48:48.644Z,68.35
2022-12-03T16:51:16.544Z,64.38
2022-12-03T16:53:43.687Z,66.88
2022-12-03T16:56:12.435Z,60.67
2022-12-03T16:58:40.001Z,60.67
2022-12-03T17:01:07.852Z,59.83
2022-12-03T17:03:35.152Z,61.47
2022-12-03T17:06:02.836Z,61.30
2022-12-03T17:08:30.418Z,64.70
2022-12-03T17:10:57.809Z,74.40
2022-12-03T17:13:25.224Z,70.93
2022-12-03T17:15:52.381Z,75.10
2022-12-03T17:18:19.391Z,64.15
2022-12-03T17:20:47.127Z,73.95
2022-12-03T17:23:14.129Z,67.55
2022-12-03T17:25:41.111Z,74.70
2022-12-03T17:28:08.842Z,69.22
2022-12-03T17:30:40.043Z,66.60
2022-12-03T17:33:07.042Z,74.32
2022-12-03T17:35:36.405Z,68.60
2022-12-03T17:38:04.047Z,69.28
2022-12-03T17:40:31.287Z,77.40
2022-12-03T17:42:58.311Z,66.45
2022-12-03T17:45:26.344Z,61.40
2022-12-03T17:47:53.949Z,64.78
2022-12-03T17:50:21.209Z,62.72
2022-12-03T17:52:49.252Z,67.30
2022-12-03T17:55:27.860Z,61.80
2022-12-03T17:58:00.758Z,83.43
2022-12-03T18:00:28.080Z,68.15
2022-12-03T18:02:56.192Z,70.32
2022-12-03T18:05:26.180Z,72.20
2022-12-03T18:07:54.085Z,78.30
2022-12-03T18:10:21.309Z,69.65
2022-12-03T18:12:48.703Z,75.50
2022-12-03T18:15:16.972Z,72.65
2022-12-03T18:17:44.321Z,69.90
2022-12-03T18:20:11.555Z,79.07
2022-12-03T18:22:38.901Z,77.45
2022-12-03T18:25:07.040Z,64.25
2022-12-03T18:27:35.309Z,81.85
2022-12-03T18:30:02.612Z,70.93
2022-12-03T18:32:30.326Z,72.30
2022-12-03T18:34:58.174Z,71.55
2022-12-03T18:37:29.501Z,82.10
2022-12-03T18:39:57.924Z,82.38
2022-12-03T18:42:25.727Z,77.93
2022-12-03T18:44:55.342Z,76.82
2022-12-03T18:47:26.696Z,69.95
2022-12-03T18:49:55.701Z,66.45
2022-12-03T18:52:25.287Z,68.68
2022-12-03T18:54:52.563Z,66.25
2022-12-03T18:57:21.989Z,69.68
2022-12-03T18:59:49.145Z,75.00
2022-12-03T19:02:53.793Z,64.72
2022-12-03T19:05:07.566Z,62.75
2022-12-03T19:07:34.971Z,79.00
2022-12-03T19:10:02.076Z,76.47
2022-12-03T19:12:32.427Z,73.43
2022-12-03T19:15:02.159Z,67.43
2022-12-03T19:17:31.173Z,66.93
2022-12-03T19:19:58.412Z,73.63
2022-12-03T19:22:25.835Z,75.55
2022-12-03T19:24:53.150Z,70.90
2022-12-03T19:27:20.858Z,69.90
2022-12-03T19:29:49.613Z,70.47
2022-12-03T19:32:20.268Z,73.20
2022-12-03T19:34:47.265Z,76.65
2022-12-03T19:37:14.317Z,75.10
2022-12-03T19:39:41.389Z,70.68
2022-12-03T19:42:09.715Z,72.82
2022-12-03T19:44:37.254Z,73.63
2022-12-03T19:47:05.114Z,75.13
2022-12-03T19:49:32.652Z,84.80
2022-12-03T19:51:59.723Z,75.95
2022-12-03T19:54:26.975Z,74.47
2022-12-03T19:56:54.625Z,72.10
2022-12-03T19:59:21.826Z,75.90
2022-12-03T20:01:49.311Z,74.57
2022-12-03T20:04:16.819Z,72.60
2022-12-03T20:06:46.316Z,78.03
2022-12-03T20:09:18.253Z,66.68
2022-12-03T20:11:46.083Z,73.30
2022-12-03T20:14:15.440Z,72.15
2022-12-03T20:16:43.181Z,75.00
2022-12-03T20:19:12.716Z,72.57
2022-12-03T20:21:40.894Z,67.03
2022-12-03T20:24:13.520Z,73.45
2022-12-03T20:26:41.322Z,73.85
2022-12-03T20:29:08.329Z,67.30
2022-12-03T20:31:35.436Z,68.28
2022-12-03T20:34:03.369Z,70.50
2022-12-03T20:36:31.896Z,75.88
2022-12-03T20:39:05.765Z,71.63
2022-12-03T20:41:38.476Z,67.00
2022-12-03T20:44:08.006Z,74.35
2022-12-03T20:46:35.345Z,72.35
2022-12-03T20:49:02.495Z,70.45
2022-12-03T20:51:30.909Z,70.65
2022-12-03T20:54:01.203Z,68.82
2022-12-03T20:56:35.147Z,72.40
2022-12-03T20:59:11.735Z,66.80
2022-12-03T21:01:40.220Z,68.25
2022-12-03T21:04:08.322Z,67.25
2022-12-03T21:06:36.984Z,73.13
2022-12-03T21:09:06.073Z,62.88
2022-12-03T21:11:36.143Z,67.63
2022-12-03T21:14:04.335Z,68.65
2022-12-03T21:17:05.904Z,65.38
2022-12-03T21:19:23.558Z,68.60
2022-12-03T21:21:50.931Z,74.10
2022-12-03T21:24:18.013Z,69.25
2022-12-03T21:26:45.119Z,76.55
2022-12-03T21:29:12.209Z,78.30
2022-12-03T21:31:40.061Z,75.22
2022-12-03T21:34:08.722Z,72.75
2022-12-03T21:36:36.087Z,69.60
2022-12-03T21:39:04.008Z,65.80
2022-12-03T21:41:31.974Z,59.20
2022-12-03T21:43:59.494Z,62.60
2022-12-03T21:47:11.891Z,62.47
2022-12-03T21:49:14.581Z,67.00
2022-12-03T21:51:42.982Z,69.28
2022-12-03T21:54:11.736Z,71.95
2022-12-03T21:56:39.089Z,72.43
2022-12-03T21:59:06.196Z,73.88
2022-12-03T22:01:33.237Z,74.45
2022-12-03T22:04:00.362Z,64.00
2022-12-03T22:06:28.541Z,68.50
2022-12-03T22:08:57.056Z,76.85
2022-12-03T22:11:24.811Z,80.30
2022-12-03T22:13:51.864Z,64.55
2022-12-03T22:16:21.151Z,74.10
2022-12-03T22:18:48.667Z,85.85
2022-12-03T22:21:18.641Z,78.47
2022-12-03T22:23:46.547Z,73.50
2022-12-03T22:26:15.857Z,70.72
2022-12-03T22:28:47.954Z,64.75
2022-12-03T22:31:15.931Z,78.03
2022-12-03T22:33:43.621Z,76.55
2022-12-03T22:36:19.757Z,80.13
2022-12-03T22:38:48.249Z,74.10
2022-12-03T22:41:16.383Z,73.88
2022-12-03T22:43:45.180Z,72.82
2022-12-03T22:46:13.323Z,70.85
2022-12-03T22:48:42.721Z,74.05
2022-12-03T22:51:29.042Z,71.85
2022-12-03T22:53:57.950Z,76.10
2022-12-03T22:56:26.298Z,72.45
2022-12-03T22:58:53.724Z,76.80
2022-12-03T23:01:32.864Z,68.70
2022-12-03T23:04:01.103Z,77.85
2022-12-03T23:06:29.645Z,72.07
2022-12-03T23:08:58.463Z,67.38
2022-12-03T23:11:26.055Z,78.43
2022-12-03T23:13:53.378Z,67.07
2022-12-03T23:16:32.826Z,65.88
2022-12-03T23:19:01.367Z,74.78
2022-12-03T23:21:32.075Z,72.45
2022-12-03T23:24:00.951Z,73.63
2022-12-03T23:26:29.042Z,73.95
2022-12-03T23:28:57.320Z,76.60
2022-12-03T23:31:30.869Z,76.30
2022-12-03T23:33:59.359Z,71.15
2022-12-03T23:36:29.252Z,75.20
2022-12-03T23:38:56.424Z,74.68
2022-12-03T23:41:25.908Z,74.90
2022-12-03T23:43:53.432Z,80.35
2022-12-03T23:46:23.520Z,77.68
2022-12-03T23:48:51.661Z,67.88
2022-12-03T23:51:21.290Z,67.40
2022-12-03T23:53:49.275Z,73.38
2022-12-03T23:56:19.406Z,77.85
2022-12-03T23:58:47.116Z,78.55
